Time;durP1;ratioP1;P1;durP2;ratioP2;P2;SDS_P1;SDS_P2;PMS_P1;PMS_P2;Temp;Humidity;BMP_temperature;BMP_pressure;BME280_temperature;BME280_humidity;BME280_pressure;Samples;Min_cycle;Max_cycle;Signal;HPM_P1;HPM_P2
2022/09/26 00:00:07;;;;;;;2.80;1.33;;;;;;;;;;5101235;28;20034;-93
2022/09/26 00:02:54;;;;;;;2.20;1.20;;;;;;;;;;5097236;28;20034;-93
2022/09/26 00:05:42;;;;;;;1.65;1.05;;;;;;;;;;5094066;28;20062;-93
2022/09/26 00:08:40;;;;;;;2.40;1.70;;;;;;;;;;5097746;28;20525;-93
2022/09/26 00:11:27;;;;;;;1.83;0.95;;;;;;;;;;5087290;28;20039;-93
2022/09/26 00:14:18;;;;;;;2.35;1.10;;;;;;;;;;5087809;28;20038;-91
2022/09/26 00:17:21;;;;;;;2.53;1.20;;;;;;;;;;5093037;28;20067;-93
2022/09/26 00:20:09;;;;;;;1.58;1.02;;;;;;;;;;5120718;28;20035;-92
2022/09/26 00:22:54;;;;;;;2.22;0.93;;;;;;;;;;5089919;28;20058;-91
2022/09/26 00:25:44;;;;;;;1.80;1.00;;;;;;;;;;5106457;28;20461;-93
2022/09/26 00:28:34;;;;;;;2.80;1.55;;;;;;;;;;5108456;28;20092;-93
2022/09/26 00:31:22;;;;;;;2.17;1.40;;;;;;;;;;5106483;28;20034;-93
2022/09/26 00:34:07;;;;;;;1.90;1.10;;;;;;;;;;5099088;28;20057;-92
2022/09/26 00:37:04;;;;;;;2.45;1.33;;;;;;;;;;5088092;28;20046;-90
2022/09/26 00:39:54;;;;;;;4.68;1.25;;;;;;;;;;5081009;28;20036;-93
2022/09/26 00:42:39;;;;;;;2.53;1.30;;;;;;;;;;5071037;28;20039;-92
2022/09/26 00:45:25;;;;;;;3.65;1.45;;;;;;;;;;5085951;28;20109;-91
2022/09/26 00:48:10;;;;;;;1.58;1.20;;;;;;;;;;5091902;28;20054;-91
2022/09/26 00:50:57;;;;;;;3.78;1.58;;;;;;;;;;5082979;28;20039;-91
2022/09/26 00:53:44;;;;;;;3.20;1.38;;;;;;;;;;5073805;28;20105;-93
2022/09/26 00:56:36;;;;;;;1.90;1.25;;;;;;;;;;5094540;28;20038;-94
2022/09/26 00:59:24;;;;;;;3.42;1.20;;;;;;;;;;5096472;28;20399;-92
2022/09/26 01:02:18;;;;;;;3.00;1.20;;;;;;;;;;5087760;28;20039;-94
2022/09/26 01:05:06;;;;;;;3.45;1.52;;;;;;;;;;5099412;28;20392;-91
2022/09/26 01:07:53;;;;;;;2.10;1.10;;;;;;;;;;5082613;28;20157;-93
2022/09/26 01:10:38;;;;;;;6.95;1.20;;;;;;;;;;5090593;28;20038;-92
2022/09/26 01:13:25;;;;;;;3.60;1.08;;;;;;;;;;5065742;28;20097;-93
2022/09/26 01:16:13;;;;;;;3.00;1.50;;;;;;;;;;5079045;28;20042;-93
2022/09/26 01:18:58;;;;;;;1.92;1.10;;;;;;;;;;5094521;28;20031;-93
2022/09/26 01:22:08;;;;;;;2.35;1.35;;;;;;;;;;5083690;28;20089;-92
2022/09/26 01:24:59;;;;;;;3.97;1.27;;;;;;;;;;5099619;28;20659;-93
2022/09/26 01:27:47;;;;;;;5.53;1.25;;;;;;;;;;5087043;28;20034;-91
2022/09/26 01:30:43;;;;;;;2.40;1.25;;;;;;;;;;5096484;28;20498;-92
2022/09/26 01:33:36;;;;;;;2.25;1.20;;;;;;;;;;5078715;28;20070;-92
2022/09/26 01:36:31;;;;;;;8.13;1.23;;;;;;;;;;5103679;28;20062;-91
2022/09/26 01:39:32;;;;;;;;;;;;;;;;;;;;;
2022/09/26 01:42:25;;;;;;;2.45;1.35;;;;;;;;;;5096310;28;20062;-90
2022/09/26 01:45:16;;;;;;;3.53;1.58;;;;;;;;;;5109149;28;20039;-92
2022/09/26 01:48:18;;;;;;;2.72;1.50;;;;;;;;;;5103743;28;20061;-91
2022/09/26 01:51:14;;;;;;;1.75;1.20;;;;;;;;;;5098891;28;20081;-91
2022/09/26 01:54:16;;;;;;;2.95;1.52;;;;;;;;;;5092158;28;20034;-90
2022/09/26 01:57:05;;;;;;;2.45;1.27;;;;;;;;;;5085135;28;20077;-92
2022/09/26 01:59:53;;;;;;;4.72;1.25;;;;;;;;;;5083550;28;20035;-92
2022/09/26 02:02:40;;;;;;;1.80;1.15;;;;;;;;;;5098006;28;20039;-92
2022/09/26 02:05:32;;;;;;;2.00;1.25;;;;;;;;;;5093168;28;20120;-91
2022/09/26 02:08:19;;;;;;;4.47;1.85;;;;;;;;;;5108674;28;20093;-93
2022/09/26 02:11:06;;;;;;;2.58;1.00;;;;;;;;;;5098652;28;20110;-92
2022/09/26 02:13:58;;;;;;;3.10;1.02;;;;;;;;;;5097810;28;20380;-92
2022/09/26 02:16:47;;;;;;;2.25;1.17;;;;;;;;;;5097648;28;20081;-92
2022/09/26 02:19:35;;;;;;;4.22;1.40;;;;;;;;;;5088673;28;20051;-91
2022/09/26 02:22:23;;;;;;;1.98;1.13;;;;;;;;;;5077751;28;20039;-92
2022/09/26 02:25:09;;;;;;;5.35;1.17;;;;;;;;;;5077904;28;20047;-92
2022/09/26 02:27:56;;;;;;;2.22;1.27;;;;;;;;;;5077543;28;20057;-93
2022/09/26 02:30:42;;;;;;;2.28;1.00;;;;;;;;;;5091740;28;20107;-92
2022/09/26 02:33:32;;;;;;;3.95;1.63;;;;;;;;;;5089787;28;20038;-92
2022/09/26 02:36:18;;;;;;;3.42;0.98;;;;;;;;;;5092060;28;20086;-91
2022/09/26 02:39:04;;;;;;;2.53;1.20;;;;;;;;;;5090980;28;20128;-92
2022/09/26 02:42:09;;;;;;;3.10;1.23;;;;;;;;;;5072460;28;20040;-92
2022/09/26 02:45:03;;;;;;;1.90;1.25;;;;;;;;;;5071502;28;20094;-92
2022/09/26 02:48:20;;;;;;;2.97;1.35;;;10.90;99.90;;;;;;5075400;28;20102;-91
2022/09/26 02:51:15;;;;;;;1.67;1.00;;;;;;;;;;5078257;28;20058;-91
2022/09/26 02:54:29;;;;;;;5.25;1.30;;;10.80;99.90;;;;;;5080315;28;20055;-91
2022/09/26 02:57:17;;;;;;;4.32;1.40;;;;;;;;;;5082574;28;20518;-89
2022/09/26 03:00:08;;;;;;;2.85;1.20;;;;;;;;;;5077051;28;20054;-90
2022/09/26 03:03:06;;;;;;;3.67;0.88;;;;;;;;;;5076924;28;20120;-90
2022/09/26 03:05:53;;;;;;;2.20;1.20;;;;;;;;;;5091130;28;20043;-89
2022/09/26 03:08:43;;;;;;;2.75;1.30;;;;;;;;;;5077777;28;20541;-91
2022/09/26 03:11:28;;;;;;;3.22;1.40;;;;;;;;;;5077083;28;20035;-89
2022/09/26 03:14:14;;;;;;;2.70;1.70;;;;;;;;;;5091551;28;20077;-90
2022/09/26 03:17:00;;;;;;;3.42;1.77;;;;;;;;;;5086856;28;20039;-90
2022/09/26 03:19:46;;;;;;;2.47;1.40;;;;;;;;;;5088748;28;20081;-89
2022/09/26 03:22:31;;;;;;;4.35;1.55;;;;;;;;;;5096112;28;20077;-89
2022/09/26 03:25:25;;;;;;;5.50;1.35;;;;;;;;;;5080707;28;20055;-90
2022/09/26 03:28:11;;;;;;;4.25;1.90;;;;;;;;;;5081644;28;20506;-89
2022/09/26 03:30:56;;;;;;;2.97;1.52;;;;;;;;;;5074447;28;20051;-89
2022/09/26 03:33:40;;;;;;;5.18;1.73;;;;;;;;;;5092411;28;20499;-89
2022/09/26 03:36:25;;;;;;;2.92;1.85;;;;;;;;;;5095035;28;20458;-89
2022/09/26 03:39:09;;;;;;;3.75;1.63;;;;;;;;;;5081181;28;20082;-90
2022/09/26 03:41:55;;;;;;;3.80;2.00;;;;;;;;;;5094407;28;20039;-89
2022/09/26 03:44:41;;;;;;;4.15;1.40;;;;;;;;;;5085438;28;20047;-89
2022/09/26 03:47:27;;;;;;;2.92;1.50;;;;;;;;;;5074553;28;20426;-88
2022/09/26 03:50:12;;;;;;;7.03;1.70;;;;;;;;;;5087869;28;20486;-89
2022/09/26 03:52:58;;;;;;;3.20;1.50;;;;;;;;;;5095050;28;20039;-88
2022/09/26 03:55:42;;;;;;;4.85;1.73;;;;;;;;;;5068166;28;20063;-88
2022/09/26 03:58:27;;;;;;;6.88;1.83;;;;;;;;;;5075120;28;20036;-89
2022/09/26 04:01:13;;;;;;;6.22;1.98;;;;;;;;;;5087899;28;20031;-89
2022/09/26 04:03:58;;;;;;;3.72;1.73;;;;;;;;;;5085090;28;20031;-89
2022/09/26 04:06:43;;;;;;;6.07;1.70;;;;;;;;;;5075133;28;20047;-88
2022/09/26 04:09:28;;;;;;;3.15;1.55;;;;;;;;;;5088699;28;20031;-88
2022/09/26 04:12:13;;;;;;;2.70;1.67;;;;;;;;;;5086886;28;20040;-89
2022/09/26 04:14:58;;;;;;;4.25;2.10;;;;;;;;;;5090156;28;20404;-88
2022/09/26 04:17:42;;;;;;;2.85;1.92;;;;;;;;;;5082890;28;20039;-88
2022/09/26 04:20:27;;;;;;;4.25;1.80;;;;;;;;;;5093638;28;20544;-89
2022/09/26 04:23:12;;;;;;;3.67;1.58;;;;;;;;;;5094497;28;20055;-89
2022/09/26 04:26:02;;;;;;;2.53;1.58;;;;;;;;;;5094543;28;20111;-88
2022/09/26 04:28:50;;;;;;;3.38;1.88;;;;;;;;;;5094395;28;20035;-87
2022/09/26 04:31:36;;;;;;;3.50;1.92;;;;;;;;;;5081281;28;20032;-88
2022/09/26 04:34:23;;;;;;;3.33;2.00;;;;;;;;;;5083840;28;20034;-88
2022/09/26 04:37:08;;;;;;;3.13;1.73;;;;;;;;;;5099644;28;20065;-89
2022/09/26 04:39:55;;;;;;;5.43;1.88;;;;;;;;;;5099526;28;20107;-90
2022/09/26 04:42:41;;;;;;;4.05;1.70;;;;;;;;;;5108180;28;20108;-88
2022/09/26 04:45:26;;;;;;;6.28;2.10;;;;;;;;;;5094724;28;20046;-88
2022/09/26 04:48:10;;;;;;;5.28;1.85;;;;;;;;;;5114522;28;20400;-88
2022/09/26 04:50:55;;;;;;;2.90;2.03;;;;;;;;;;5094861;28;20039;-89
2022/09/26 04:53:40;;;;;;;3.92;2.03;;;;;;;;;;5099327;28;20054;-89
2022/09/26 04:56:25;;;;;;;4.00;1.80;;;;;;;;;;5114630;28;20080;-89
2022/09/26 04:59:10;;;;;;;3.05;1.67;;;;;;;;;;5112269;28;20575;-87
2022/09/26 05:01:55;;;;;;;5.50;2.30;;;;;;;;;;5090889;28;20540;-88
2022/09/26 05:04:39;;;;;;;4.10;2.13;;;;;;;;;;5081590;28;20066;-89
2022/09/26 05:07:26;;;;;;;4.15;2.20;;;;;;;;;;5098811;28;20066;-90
2022/09/26 05:10:11;;;;;;;8.73;2.30;;;;;;;;;;5098063;28;20042;-88
2022/09/26 05:12:58;;;;;;;3.72;2.28;;;;;;;;;;5114078;28;20089;-89
2022/09/26 05:15:43;;;;;;;6.18;2.22;;;;;;;;;;5086539;28;20064;-88
2022/09/26 05:18:28;;;;;;;4.60;2.30;;;;;;;;;;5095027;28;20399;-88
2022/09/26 05:21:12;;;;;;;4.15;2.22;;;;;;;;;;5092576;28;20391;-90
2022/09/26 05:27:01;;;;;;;5.05;2.67;;;;;;;;;;5113311;28;20050;-89
2022/09/26 05:29:46;;;;;;;3.95;2.15;;;;;;;;;;5105952;28;20035;-89
2022/09/26 05:32:30;;;;;;;5.40;2.67;;;;;;;;;;5079272;28;20059;-88
2022/09/26 05:35:15;;;;;;;4.88;2.40;;;;;;;;;;5088202;28;20458;-89
2022/09/26 05:38:00;;;;;;;2.88;1.70;;;;;;;;;;5098220;28;20056;-88
2022/09/26 05:40:57;;;;;;;5.43;2.38;;;;;;;;;;5112587;28;20085;-88
2022/09/26 05:43:42;;;;;;;8.85;2.45;;;;;;;;;;5113316;28;20034;-86
2022/09/26 05:46:27;;;;;;;4.75;2.42;;;;;;;;;;5089810;28;20050;-86
2022/09/26 05:49:13;;;;;;;3.35;2.20;;;;;;;;;;5096628;28;20043;-87
2022/09/26 05:51:58;;;;;;;3.40;2.00;;;;;;;;;;5096957;28;20039;-88
2022/09/26 05:54:43;;;;;;;3.85;1.88;;;;;;;;;;5113126;28;20046;-90
2022/09/26 05:57:27;;;;;;;3.90;2.10;;;;;;;;;;5090967;28;20047;-86
2022/09/26 06:00:13;;;;;;;5.60;2.28;;;;;;;;;;5087530;28;20093;-90
2022/09/26 06:02:58;;;;;;;4.75;2.35;;;;;;;;;;5092180;28;20081;-87
2022/09/26 06:05:43;;;;;;;4.30;2.00;;;;;;;;;;5113129;28;20128;-87
2022/09/26 06:08:27;;;;;;;4.70;2.25;;;;;;;;;;5098811;28;20035;-86
2022/09/26 06:11:13;;;;;;;4.80;2.03;;;;;;;;;;5095110;28;20388;-88
2022/09/26 06:14:01;;;;;;;4.95;2.08;;;;;;;;;;5094510;28;20030;-88
2022/09/26 06:16:46;;;;;;;6.55;2.60;;;;;;;;;;5112362;28;20396;-88
2022/09/26 06:19:31;;;;;;;5.50;2.45;;;;;;;;;;5104987;28;20043;-87
2022/09/26 06:22:15;;;;;;;8.60;2.25;;;;;;;;;;5112689;28;20038;-86
2022/09/26 06:25:00;;;;;;;5.07;2.35;;;;;;;;;;5083213;28;20042;-89
2022/09/26 06:27:44;;;;;;;3.80;2.40;;;;;;;;;;5088945;28;20128;-87
2022/09/26 06:30:29;;;;;;;4.03;1.98;;;;;;;;;;5096151;28;20035;-88
2022/09/26 06:33:14;;;;;;;3.63;2.00;;;;;;;;;;5084086;28;20068;-89
2022/09/26 06:36:02;;;;;;;8.18;2.50;;;;;;;;;;5080769;28;20087;-88
2022/09/26 06:38:47;;;;;;;4.60;2.45;;;;;;;;;;5075220;28;20055;-87
2022/09/26 06:41:34;;;;;;;4.13;2.20;;;;;;;;;;5091807;28;20059;-87
2022/09/26 06:44:18;;;;;;;5.82;2.35;;;;;;;;;;5077124;28;20468;-87
2022/09/26 06:47:04;;;;;;;4.45;2.05;;;;;;;;;;5083359;28;20519;-85
2022/09/26 06:49:49;;;;;;;3.40;1.92;;;;;;;;;;5091733;28;20403;-88
2022/09/26 06:52:34;;;;;;;3.83;2.10;;;;;;;;;;5081210;28;20035;-89
2022/09/26 06:55:18;;;;;;;4.65;1.90;;;;;;;;;;5095266;28;20113;-87
2022/09/26 06:58:03;;;;;;;3.53;1.98;;;;;;;;;;5095481;28;20051;-87
2022/09/26 07:00:47;;;;;;;4.50;2.30;;;;;;;;;;5088974;28;20107;-87
2022/09/26 07:03:32;;;;;;;3.58;1.80;;;;;;;;;;5081370;28;20097;-86
2022/09/26 07:06:16;;;;;;;3.75;1.90;;;;;;;;;;5095970;28;20125;-87
2022/09/26 07:09:01;;;;;;;3.55;1.83;;;;;;;;;;5094540;28;20109;-87
2022/09/26 07:11:49;;;;;;;3.78;1.73;;;;;;;;;;5080860;28;20066;-87
2022/09/26 07:14:33;;;;;;;4.03;1.92;;;;;;;;;;5095284;28;20043;-85
2022/09/26 07:17:18;;;;;;;3.05;1.80;;;;;;;;;;5094208;28;20082;-86
2022/09/26 07:20:02;;;;;;;3.83;2.30;;;;;;;;;;5082777;28;20120;-88
2022/09/26 07:22:47;;;;;;;3.22;1.77;;;;;;;;;;5090381;28;20127;-89
2022/09/26 07:25:32;;;;;;;3.25;1.52;;;;;;;;;;5089299;28;20142;-89
2022/09/26 07:28:16;;;;;;;3.55;2.22;;;;;;;;;;5090222;28;20097;-90
2022/09/26 07:31:01;;;;;;;4.53;2.17;;;;;;;;;;5090109;28;20404;-88
2022/09/26 07:33:45;;;;;;;3.67;1.80;;;;;;;;;;5095683;28;20047;-88
2022/09/26 07:36:30;;;;;;;3.85;1.73;;;;;;;;;;5114534;28;20066;-89
2022/09/26 07:39:15;;;;;;;3.42;1.80;;;;;;;;;;5115506;28;20070;-89
2022/09/26 07:42:03;;;;;;;3.70;1.85;;;;;;;;;;5092699;28;20506;-88
2022/09/26 07:44:48;;;;;;;6.85;2.15;;;;;;;;;;5076693;28;20128;-87
2022/09/26 07:50:37;;;;;;;5.10;1.30;;;;;;;;;;5110912;28;20078;-87
2022/09/26 07:53:23;;;;;;;2.30;1.45;;;;;;;;;;5102097;28;20078;-89
2022/09/26 07:56:11;;;;;;;3.50;2.15;;;;;;;;;;5115717;28;20491;-83
2022/09/26 07:58:55;;;;;;;3.38;1.55;;;;;;;;;;5116007;28;20038;-87
2022/09/26 08:01:40;;;;;;;4.75;2.10;;;;;;;;;;5088866;28;20116;-88
2022/09/26 08:04:24;;;;;;;5.65;1.98;;;;;;;;;;5101062;28;20105;-88
2022/09/26 08:07:11;;;;;;;3.53;1.75;;;;;;;;;;5095329;28;20085;-88
2022/09/26 08:09:57;;;;;;;3.35;1.73;;;;;;;;;;5097369;28;20096;-89
2022/09/26 08:12:42;;;;;;;3.13;1.33;;;;;;;;;;5115112;28;20080;-88
2022/09/26 08:15:27;;;;;;;5.03;1.60;;;;;;;;;;5098551;28;20049;-89
2022/09/26 08:18:12;;;;;;;6.97;1.85;;;;;;;;;;5099833;28;20034;-86
2022/09/26 08:20:57;;;;;;;3.20;1.60;;;;;;;;;;5100049;28;20073;-88
2022/09/26 08:23:41;;;;;;;4.28;1.67;;;;;;;;;;5092731;28;20223;-87
2022/09/26 08:26:26;;;;;;;4.10;1.83;;;;;;;;;;5107727;28;20042;-88
2022/09/26 08:29:11;;;;;;;5.18;1.98;;;;;;;;;;5100665;28;20088;-87
2022/09/26 08:31:57;;;;;;;2.85;1.73;;;;;;;;;;5109853;28;20031;-87
2022/09/26 08:34:41;;;;;;;6.10;1.90;;;;;;;;;;5113924;28;20077;-88
2022/09/26 08:37:27;;;;;;;2.95;1.70;;;;;;;;;;5114532;28;20043;-86
2022/09/26 08:40:11;;;;;;;2.25;1.23;;;;;;;;;;5099534;28;20046;-87
2022/09/26 08:43:09;;;;;;;4.55;1.30;;;;;;;;;;5103577;28;20057;-86
2022/09/26 08:49:08;;;;;;;3.95;1.77;;;;;;;;;;5107473;28;20458;-85
2022/09/26 08:51:54;;;;;;;2.40;1.55;;;;;;;;;;5091627;28;20059;-86
2022/09/26 08:54:40;;;;;;;5.43;1.58;;;;;;;;;;5113923;28;20034;-86
2022/09/26 08:57:40;;;;;;;2.75;1.52;;;;;;;;;;5114487;28;20544;-86
2022/09/26 09:00:26;;;;;;;2.90;1.65;;;;;;;;;;5104367;28;20050;-85
2022/09/26 09:03:25;;;;;;;2.08;1.20;;;;;;;;;;5114514;28;20168;-85
2022/09/26 09:06:11;;;;;;;6.28;1.70;;;;;;;;;;5098959;28;20050;-87
2022/09/26 09:08:56;;;;;;;3.10;1.60;;;;;;;;;;5114717;28;20037;-85
2022/09/26 09:11:47;;;;;;;6.55;1.60;;;;;;;;;;5098437;28;20498;-86
2022/09/26 09:14:49;;;;;;;1.77;1.20;;;;;;;;;;5107059;28;20027;-87
2022/09/26 09:18:03;;;;;;;3.17;1.23;;;;;;;;;;5103620;28;20069;-85
2022/09/26 09:20:48;;;;;;;2.50;1.40;;;;;;;;;;5080505;28;20047;-87
2022/09/26 09:23:39;;;;;;;5.07;1.77;;;;;;;;;;5108896;28;20077;-87
2022/09/26 09:26:27;;;;;;;3.85;1.65;;;;;;;;;;5098577;28;20050;-89
2022/09/26 09:29:17;;;;;;;6.00;1.63;;;;;;;;;;5091945;28;20184;-87
2022/09/26 09:32:02;;;;;;;2.65;1.42;;;;;;;;;;5110902;28;20026;-86
2022/09/26 09:34:48;;;;;;;8.35;1.85;;;;;;;;;;5113267;28;20070;-88
2022/09/26 09:37:41;;;;;;;3.10;1.70;;;;;;;;;;5099700;28;20495;-87
2022/09/26 09:40:29;;;;;;;2.30;1.30;;;;;;;;;;5095625;28;20031;-87
2022/09/26 09:43:25;;;;;;;3.50;1.27;;;;;;;;;;5088729;28;20088;-86
2022/09/26 09:46:14;;;;;;;2.28;1.23;;;;;;;;;;5100786;28;20058;-86
2022/09/26 09:49:14;;;;;;;2.95;1.70;;;;;;;;;;5113493;28;20066;-85
2022/09/26 09:52:05;;;;;;;2.67;1.13;;;;;;;;;;5103843;28;20111;-86
2022/09/26 09:54:59;;;;;;;2.63;1.33;;;;;;;;;;5098783;28;20077;-88
2022/09/26 09:57:43;;;;;;;3.58;1.35;;;;;;;;;;5083215;28;20043;-86
2022/09/26 10:00:28;;;;;;;4.25;1.73;;;;;;;;;;5104457;28;20037;-86
2022/09/26 10:03:37;;;;;;;3.38;1.77;;;;;;;;;;5089459;28;20452;-86
2022/09/26 10:06:22;;;;;;;2.20;1.30;;;;;;;;;;5103062;28;20507;-87
2022/09/26 10:09:17;;;;;;;2.95;1.67;;;;;;;;;;5075466;28;20043;-87
2022/09/26 10:12:03;;;;;;;2.42;1.25;;;;;;;;;;5104002;28;20422;-87
2022/09/26 10:15:18;;;;;;;2.95;1.50;;;;;;;;;;5106644;28;20038;-88
2022/09/26 10:18:16;;;;;;;5.90;1.67;;;;;;;;;;5095606;28;20111;-88
2022/09/26 10:21:07;;;;;;;6.05;2.35;;;;;;;;;;5087456;28;20097;-90
2022/09/26 10:23:52;;;;;;;4.47;1.70;;;;;;;;;;5112352;28;20034;-89
2022/09/26 10:26:38;;;;;;;4.85;1.73;;;;;;;;;;5112402;28;20070;-89
2022/09/26 10:29:23;;;;;;;4.15;1.80;;;;;;;;;;5086790;28;20127;-88
2022/09/26 10:32:10;;;;;;;2.90;1.45;;;;;;;;;;5112570;28;20035;-86
2022/09/26 10:35:06;;;;;;;3.55;1.73;;;;;;;;;;5111253;28;20067;-88
2022/09/26 10:38:00;;;;;;;3.60;2.22;;;;;;;;;;5086433;28;20040;-88
2022/09/26 10:40:51;;;;;;;2.78;1.83;;;;;;;;;;5112214;28;20039;-90
2022/09/26 10:43:39;;;;;;;3.95;1.92;;;;;;;;;;5086337;28;20043;-89
2022/09/26 10:46:24;;;;;;;4.38;1.80;;;;;;;;;;5102064;28;20061;-89
2022/09/26 10:49:12;;;;;;;4.72;1.90;;;;;;;;;;5085461;28;20038;-89
2022/09/26 10:51:59;;;;;;;3.10;1.90;;;;;;;;;;5105056;28;20061;-87
2022/09/26 10:54:47;;;;;;;5.93;2.03;;;;;;;;;;5112132;28;20026;-88
2022/09/26 10:57:39;;;;;;;4.68;2.22;;;;;;;;;;5112854;28;20145;-88
2022/09/26 11:00:36;;;;;;;4.30;2.00;;;;;;;;;;5087997;28;20039;-88
2022/09/26 11:03:32;;;;;;;8.20;1.83;;;;;;;;;;5091216;28;20116;-89
2022/09/26 11:06:24;;;;;;;2.63;1.45;;;;;;;;;;5107695;28;20042;-89
2022/09/26 11:09:10;;;;;;;3.83;1.83;;;;;;;;;;5112910;28;20055;-89
2022/09/26 11:11:54;;;;;;;2.80;1.92;;;;;;;;;;5096738;28;20400;-87
2022/09/26 11:14:44;;;;;;;2.58;1.60;;;;;;;;;;5088840;28;20123;-89
2022/09/26 11:17:43;;;;;;;2.83;1.73;;;;;;;;;;5086263;28;20031;-88
2022/09/26 11:21:00;;;;;;;3.08;1.73;;;;;;;;;;5112368;28;20392;-90
2022/09/26 11:24:04;;;;;;;3.85;1.73;;;;;;;;;;5055628;28;20043;-89
2022/09/26 11:27:04;;;;;;;5.22;1.85;;;;;;;;;;5105945;28;21483;-89
2022/09/26 11:30:08;;;;;;;3.85;1.70;;;;;;;;;;5104830;28;20054;-90
2022/09/26 11:32:55;;;;;;;2.75;1.52;;;;;;;;;;5101583;28;20032;-89
2022/09/26 11:35:51;;;;;;;4.45;1.80;;;;;;;;;;5076386;28;20059;-88
2022/09/26 11:38:39;;;;;;;2.25;1.45;;;;;;;;;;5108533;28;20042;-90
2022/09/26 11:41:36;;;;;;;2.33;1.30;;;;;;;;;;5113872;28;20116;-91
2022/09/26 11:44:24;;;;;;;2.50;1.48;;;;;;;;;;5102534;28;20434;-89
2022/09/26 11:47:15;;;;;;;3.58;1.50;;;;;;;;;;5115408;28;20544;-87
2022/09/26 11:50:19;;;;;;;3.15;2.13;;;;;;;;;;5111179;28;20400;-89
2022/09/26 11:53:06;;;;;;;3.25;1.50;;;;;;;;;;5096239;28;20112;-87
2022/09/26 11:56:05;;;;;;;3.28;1.38;;;;;;;;;;5095629;28;20063;-90
2022/09/26 11:58:58;;;;;;;3.05;1.67;;;;;;;;;;5095573;28;20039;-89
2022/09/26 12:01:47;;;;;;;3.40;1.70;;;;;;;;;;5115007;28;20034;-89
2022/09/26 12:04:51;;;;;;;2.97;1.55;;;;;;;;;;5099664;28;20077;-90
2022/09/26 12:07:39;;;;;;;2.72;1.55;;;;;;;;;;5107572;28;20466;-89
2022/09/26 12:10:34;;;;;;;3.60;1.80;;;;;;;;;;5102386;28;20138;-90
2022/09/26 12:13:31;;;;;;;2.22;1.33;;;;;;;;;;5112691;28;20388;-90
2022/09/26 12:16:20;;;;;;;2.72;1.70;;;;;;;;;;5092907;28;20034;-90
2022/09/26 12:19:11;;;;;;;3.03;1.52;;;;;;;;;;5099745;28;20035;-89
2022/09/26 12:22:27;;;;;;;3.03;1.60;;;;;;;;;;5107432;28;20034;-90
2022/09/26 12:25:24;;;;;;;2.55;1.45;;;;;;;;;;5106107;28;20116;-90
2022/09/26 12:28:09;;;;;;;2.25;1.38;;;;;;;;;;5108409;28;20101;-88
2022/09/26 12:31:31;;;;;;;2.80;1.63;;;11.60;99.90;;;;;;5115301;28;20115;-89
2022/09/26 12:34:22;;;;;;;3.33;1.92;;;;;;;;;;5090351;28;20038;-89
2022/09/26 12:37:10;;;;;;;2.42;1.38;;;;;;;;;;5100329;28;20047;-89
2022/09/26 12:40:11;;;;;;;2.35;1.60;;;;;;;;;;5099667;28;20074;-87
2022/09/26 12:43:12;;;;;;;4.90;1.48;;;;;;;;;;5094388;28;20215;-89
2022/09/26 12:46:06;;;;;;;3.10;1.40;;;;;;;;;;5096432;28;20034;-89
2022/09/26 12:49:00;;;;;;;2.40;1.33;;;;;;;;;;5098637;28;20510;-88
2022/09/26 12:51:53;;;;;;;3.13;1.58;;;;;;;;;;5112114;28;20039;-86
2022/09/26 12:54:48;;;;;;;1.98;1.35;;;;;;;;;;5114615;28;20031;-89
2022/09/26 12:57:44;;;;;;;2.80;1.63;;;;;;;;;;5096770;28;20395;-90
2022/09/26 13:00:38;;;;;;;2.72;1.48;;;;;;;;;;5094262;28;20035;-88
2022/09/26 13:03:22;;;;;;;2.53;1.63;;;;;;;;;;5107998;28;20026;-88
2022/09/26 13:06:35;;;;;;;2.60;1.55;;;12.10;99.90;;;;;;5106701;28;20042;-88
2022/09/26 13:09:25;;;;;;;2.53;1.20;;;;;;;;;;5100439;28;20040;-88
2022/09/26 13:12:14;;;;;;;2.00;1.27;;;;;;;;;;5104302;28;20039;-89
2022/09/26 13:15:17;;;;;;;2.22;1.40;;;;;;;;;;5113858;28;20042;-89
2022/09/26 13:18:08;;;;;;;2.72;1.45;;;;;;;;;;5109848;28;20115;-88
2022/09/26 13:20:58;;;;;;;2.50;1.40;;;;;;;;;;5111470;28;20454;-89
2022/09/26 13:23:49;;;;;;;2.47;1.75;;;;;;;;;;5112281;28;20031;-88
2022/09/26 13:26:45;;;;;;;2.25;1.20;;;;;;;;;;5091385;28;20038;-89
2022/09/26 13:29:36;;;;;;;2.67;1.23;;;;;;;;;;5088468;28;20482;-90
2022/09/26 13:33:10;;;;;;;1.67;1.08;;;12.30;99.90;;;;;;5082632;28;20062;-89
2022/09/26 13:35:55;;;;;;;2.22;1.25;;;;;;;;;;5016562;28;20094;-87
2022/09/26 13:38:52;;;;;;;2.33;1.23;;;;;;;;;;5066931;28;20035;-89
2022/09/26 13:41:36;;;;;;;3.08;1.17;;;;;;;;;;5053847;28;20052;-89
2022/09/26 13:44:21;;;;;;;1.83;1.13;;;;;;;;;;5057679;28;20074;-89
2022/09/26 13:47:06;;;;;;;1.90;1.10;;;;;;;;;;5067752;28;20397;-88
2022/09/26 13:49:56;;;;;;;2.05;1.20;;;;;;;;;;5070466;28;20086;-89
2022/09/26 13:52:52;;;;;;;2.15;1.02;;;;;;;;;;5070891;28;20035;-89
2022/09/26 13:55:37;;;;;;;3.10;1.00;;;;;;;;;;5060304;28;20047;-88
2022/09/26 13:58:25;;;;;;;1.80;1.02;;;;;;;;;;5066480;28;20044;-88
2022/09/26 14:01:26;;;;;;;1.48;1.00;;;;;;;;;;5070210;28;20039;-87
2022/09/26 14:04:18;;;;;;;2.63;1.58;;;;;;;;;;5069528;28;20067;-86
2022/09/26 14:09:22;;;;;;;2.42;1.17;;;;;;;;;;5070788;28;20493;-88
2022/09/26 14:10:08;;;;;;;1.67;1.08;;;;;;;;;;5071062;28;20478;-88
2022/09/26 14:12:52;;;;;;;1.80;1.13;;;;;;;;;;5070479;28;20120;-89
2022/09/26 14:15:46;;;;;;;3.08;1.30;;;;;;;;;;5069538;28;20098;-88
2022/09/26 14:18:31;;;;;;;;;;;;;;;;;;5071837;28;20089;-91
2022/09/26 14:21:39;;;;;;;1.83;0.95;;;;;;;;;;5065786;28;19915;-88
2022/09/26 14:24:29;;;;;;;2.50;1.45;;;;;;;;;;5065102;28;20115;-87
2022/09/26 14:27:17;;;;;;;3.10;1.30;;;;;;;;;;5071395;28;20047;-88
2022/09/26 14:30:22;;;;;;;1.67;1.05;;;;;;;;;;5068853;28;20083;-88
2022/09/26 14:33:11;;;;;;;2.00;1.20;;;;;;;;;;5085442;28;20446;-90
2022/09/26 14:36:16;;;;;;;2.35;1.25;;;;;;;;;;5101108;28;20482;-88
2022/09/26 14:39:03;;;;;;;2.92;1.42;;;;;;;;;;5111608;28;20050;-89
2022/09/26 14:41:48;;;;;;;2.60;1.27;;;;;;;;;;5101187;28;20031;-89
2022/09/26 14:44:36;;;;;;;2.30;1.30;;;;;;;;;;5111387;28;20556;-89
2022/09/26 14:47:21;;;;;;;4.03;1.45;;;;;;;;;;5089298;28;20452;-90
2022/09/26 14:50:13;;;;;;;2.97;1.50;;;;;;;;;;5087395;28;20402;-91
2022/09/26 14:53:02;;;;;;;3.10;1.60;;;;;;;;;;5080016;28;20421;-90
2022/09/26 14:55:59;;;;;;;3.13;1.33;;;;;;;;;;5090318;28;20395;-92
2022/09/26 14:58:48;;;;;;;2.10;1.27;;;;;;;;;;5109317;28;20073;-90
2022/09/26 15:02:00;;;;;;;4.40;1.35;;;;;;;;;;5098076;28;20110;-90
2022/09/26 15:05:11;;;;;;;2.53;1.48;;;;;;;;;;5064993;28;20050;-92
2022/09/26 15:08:00;;;;;;;3.50;1.40;;;;;;;;;;5096122;28;20047;-90
2022/09/26 15:10:47;;;;;;;3.50;1.70;;;;;;;;;;5097717;28;20042;-89
2022/09/26 15:13:37;;;;;;;2.65;1.80;;;;;;;;;;5110925;28;20038;-91
2022/09/26 15:16:47;;;;;;;3.90;1.60;;;;;;;;;;5103341;28;20107;-89
2022/09/26 15:19:50;;;;;;;2.05;1.40;;;;;;;;;;5096485;28;20026;-90
2022/09/26 15:22:47;;;;;;;3.88;2.17;;;;;;;;;;5105627;28;20034;-89
2022/09/26 15:25:33;;;;;;;3.75;2.40;;;;;;;;;;5081734;28;20068;-88
2022/09/26 15:28:33;;;;;;;;;;;;;;;;;;;;;
2022/09/26 15:31:44;;;;;;;3.42;1.63;;;;;;;;;;5115182;28;20125;-88
2022/09/26 15:34:38;;;;;;;3.38;1.83;;;;;;;;;;5084613;28;20035;-88
2022/09/26 15:37:37;;;;;;;3.47;2.15;;;;;;;;;;5096544;28;20034;-87
2022/09/26 15:40:26;;;;;;;3.40;2.08;;;;;;;;;;5090575;28;20035;-88
2022/09/26 15:43:22;;;;;;;3.17;1.85;;;;;;;;;;5100353;28;20110;-90
2022/09/26 15:46:22;;;;;;;3.00;1.73;;;;;;;;;;5112427;28;20546;-88
2022/09/26 15:49:16;;;;;;;3.30;1.90;;;;;;;;;;5092084;28;20076;-89
2022/09/26 15:52:02;;;;;;;3.25;1.85;;;;;;;;;;5102970;28;20111;-88
2022/09/26 15:54:51;;;;;;;4.43;1.85;;;;;;;;;;5084712;28;20081;-89
2022/09/26 15:57:39;;;;;;;3.42;1.70;;;;;;;;;;5104243;28;20039;-90
2022/09/26 16:00:32;;;;;;;2.92;1.73;;;;;;;;;;5114789;28;20495;-89
2022/09/26 16:03:24;;;;;;;2.90;1.90;;;;;;;;;;5099286;28;20047;-90
2022/09/26 16:06:37;;;;;;;3.70;2.08;;;;;;;;;;5115639;28;20508;-90
2022/09/26 16:09:25;;;;;;;3.08;1.92;;;;;;;;;;5110080;28;20089;-92
2022/09/26 16:12:21;;;;;;;3.13;1.70;;;;;;;;;;5093477;28;20119;-91
2022/09/26 16:15:15;;;;;;;3.65;1.90;;;;;;;;;;5112916;28;20034;-92
2022/09/26 16:18:00;;;;;;;;;;;12.60;99.90;;;;;;5100527;28;20038;-90
2022/09/26 16:20:45;;;;;;;3.45;1.95;;;;;;;;;;5115188;28;20302;-91
2022/09/26 16:23:43;;;;;;;3.03;1.80;;;;;;;;;;5099643;28;20034;-95
2022/09/26 16:26:30;;;;;;;2.53;1.70;;;;;;;;;;5098620;28;20039;-93
2022/09/26 16:29:30;;;;;;;4.03;1.52;;;;;;;;;;5103687;28;20063;-92
2022/09/26 16:32:19;;;;;;;3.10;1.92;;;;;;;;;;5106180;28;20094;-95
2022/09/26 16:35:18;;;;;;;3.03;1.70;;;;;;;;;;5115852;28;20063;-93
2022/09/26 16:38:23;;;;;;;2.78;1.75;;;;;;;;;;5088076;28;20038;-92
2022/09/26 16:41:28;;;;;;;2.75;1.90;;;;;;;;;;5088010;28;20483;-91
2022/09/26 16:44:25;;;;;;;;;;;12.50;99.90;;;;;;5115693;28;20038;-94
2022/09/26 16:47:37;;;;;;;3.63;1.88;;;;;;;;;;5114982;28;19919;-93
2022/09/26 16:50:36;;;;;;;3.13;1.55;;;;;;;;;;5115324;28;20092;-93
2022/09/26 16:53:21;;;;;;;2.35;1.38;;;;;;;;;;5081309;28;20068;-92
2022/09/26 16:56:09;;;;;;;4.40;1.20;;;;;;;;;;5101079;28;20047;-90
2022/09/26 16:58:57;;;;;;;3.30;1.20;;;;;;;;;;5098853;28;20498;-93
2022/09/26 17:01:54;;;;;;;3.10;1.77;;;;;;;;;;5088846;28;20022;-92
2022/09/26 17:04:38;;;;;;;3.58;1.48;;;;;;;;;;5098863;28;20111;-91
2022/09/26 17:07:23;;;;;;;2.78;1.63;;;;;;;;;;5088244;28;20515;-91
2022/09/26 17:10:13;;;;;;;3.60;2.15;;;;;;;;;;5113131;28;20042;-92